createdAt,value
2017-07-31T00:01:16.853Z,4.00
2017-07-31T00:06:18.617Z,3.30
2017-07-31T00:11:20.384Z,3.40
2017-07-31T00:16:22.178Z,3.73
2017-07-31T00:21:23.989Z,3.90
2017-07-31T00:26:25.830Z,3.53
2017-07-31T00:31:27.621Z,4.17
2017-07-31T00:36:29.402Z,4.10
2017-07-31T00:41:31.168Z,4.40
2017-07-31T00:46:32.946Z,3.90
2017-07-31T00:51:34.729Z,4.50
2017-07-31T00:56:36.493Z,4.87
2017-07-31T01:01:38.854Z,4.90
2017-07-31T01:06:41.157Z,4.50
2017-07-31T01:11:43.464Z,4.43
2017-07-31T01:16:46.609Z,3.77
2017-07-31T01:21:49.182Z,3.43
2017-07-31T01:26:51.562Z,3.40
2017-07-31T01:31:53.974Z,3.17
2017-07-31T01:36:56.541Z,2.97
2017-07-31T01:41:59.320Z,5.70
2017-07-31T01:47:02.493Z,3.37
2017-07-31T01:52:05.248Z,4.07
2017-07-31T01:57:08.589Z,3.90
2017-07-31T02:02:10.518Z,6.70
2017-07-31T02:07:12.490Z,3.17
2017-07-31T02:12:14.218Z,4.03
2017-07-31T02:17:15.946Z,4.03
2017-07-31T02:22:17.802Z,4.50
2017-07-31T02:27:19.643Z,4.17
2017-07-31T02:32:21.467Z,4.50
2017-07-31T02:37:23.239Z,3.73
2017-07-31T02:42:25.043Z,3.30
2017-07-31T02:47:26.774Z,3.27
2017-07-31T02:52:28.557Z,3.03
2017-07-31T02:57:30.297Z,2.27
2017-07-31T03:02:32.118Z,2.97
2017-07-31T03:07:33.856Z,2.73
2017-07-31T03:12:35.664Z,2.67
2017-07-31T03:17:37.474Z,2.87
2017-07-31T03:22:39.351Z,2.93
2017-07-31T03:27:41.101Z,2.13
2017-07-31T03:32:42.881Z,2.00
2017-07-31T03:37:44.642Z,2.00
2017-07-31T03:42:47.206Z,2.07
2017-07-31T03:47:48.984Z,2.10
2017-07-31T03:52:50.856Z,1.83
2017-07-31T03:57:52.635Z,1.73
2017-07-31T04:02:54.390Z,2.40
2017-07-31T04:07:56.186Z,1.90
2017-07-31T04:12:57.999Z,2.00
2017-07-31T04:17:59.754Z,2.80
2017-07-31T04:23:01.513Z,2.63
2017-07-31T04:28:03.303Z,3.20
2017-07-31T04:33:05.087Z,3.37
2017-07-31T04:38:06.805Z,2.97
2017-07-31T04:43:08.711Z,3.30
2017-07-31T04:48:14.673Z,3.60
2017-07-31T04:53:17.028Z,3.70
2017-07-31T04:58:19.048Z,3.23
2017-07-31T05:03:20.891Z,3.93
2017-07-31T05:08:23.749Z,4.60
2017-07-31T05:13:25.857Z,3.70
2017-07-31T05:18:27.703Z,4.53
2017-07-31T05:23:29.530Z,4.73
2017-07-31T05:28:31.443Z,5.07
2017-07-31T05:33:33.734Z,4.40
2017-07-31T05:38:35.718Z,4.17
2017-07-31T05:43:37.483Z,4.00
2017-07-31T05:48:39.371Z,4.27
2017-07-31T05:53:41.929Z,3.17
2017-07-31T05:58:45.389Z,3.30
2017-07-31T06:03:47.246Z,3.57
2017-07-31T06:08:49.050Z,3.40
2017-07-31T06:13:51.794Z,3.10
2017-07-31T06:18:55.301Z,3.60
2017-07-31T06:23:57.187Z,4.07
2017-07-31T06:28:58.959Z,3.70
2017-07-31T06:34:00.716Z,3.30
2017-07-31T06:39:02.554Z,3.47
2017-07-31T06:44:04.298Z,4.10
2017-07-31T06:49:06.051Z,3.97
2017-07-31T06:54:07.926Z,5.30
2017-07-31T06:59:09.715Z,4.67
2017-07-31T07:04:11.954Z,4.50
2017-07-31T07:09:13.816Z,4.70
2017-07-31T07:14:15.613Z,5.17
2017-07-31T07:19:17.813Z,5.23
2017-07-31T07:24:19.637Z,4.47
2017-07-31T07:29:21.447Z,4.07
2017-07-31T07:34:24.014Z,3.73
2017-07-31T07:39:25.865Z,4.00
2017-07-31T07:44:27.643Z,3.73
2017-07-31T07:49:30.456Z,3.00
2017-07-31T07:54:32.251Z,2.93
2017-07-31T07:59:34.047Z,3.60
2017-07-31T08:04:35.839Z,2.87
2017-07-31T08:09:37.688Z,1.97
2017-07-31T08:14:39.579Z,2.07
2017-07-31T08:19:41.390Z,2.00
2017-07-31T08:24:43.174Z,1.57
2017-07-31T08:29:45.021Z,1.87
2017-07-31T08:34:47.477Z,2.40
2017-07-31T08:39:52.208Z,2.17
2017-07-31T08:44:54.211Z,1.80
2017-07-31T08:49:58.974Z,1.87
2017-07-31T08:55:06.498Z,1.40
2017-07-31T09:00:14.134Z,1.93
2017-07-31T09:05:16.039Z,1.50
2017-07-31T09:10:20.420Z,1.50
2017-07-31T09:15:22.382Z,1.40
2017-07-31T09:20:24.215Z,1.20
2017-07-31T09:25:26.085Z,2.10
2017-07-31T09:30:27.922Z,1.53
2017-07-31T09:35:29.679Z,1.63
2017-07-31T09:40:31.504Z,1.67
2017-07-31T09:45:33.281Z,1.80
2017-07-31T09:50:35.776Z,1.67
2017-07-31T09:55:37.623Z,1.50
2017-07-31T10:00:39.433Z,1.97
2017-07-31T10:05:41.254Z,2.80
2017-07-31T10:10:43.777Z,1.60
2017-07-31T10:15:45.545Z,1.80
2017-07-31T10:20:47.290Z,1.60
2017-07-31T10:25:53.591Z,1.73
2017-07-31T10:30:55.477Z,1.40
2017-07-31T10:35:57.290Z,1.30
2017-07-31T10:40:59.103Z,1.67
2017-07-31T10:46:00.852Z,1.50
2017-07-31T10:51:02.687Z,1.40
2017-07-31T10:56:05.276Z,1.80
2017-07-31T11:01:07.140Z,1.80
2017-07-31T11:06:08.932Z,1.30
2017-07-31T11:11:10.725Z,1.50
2017-07-31T11:16:12.761Z,1.23
2017-07-31T11:21:14.518Z,1.30
2017-07-31T11:26:16.340Z,1.50
2017-07-31T11:31:19.072Z,1.87
2017-07-31T11:36:20.874Z,1.60
2017-07-31T11:41:23.534Z,1.80
2017-07-31T11:46:25.601Z,1.60
2017-07-31T11:51:28.831Z,2.30
2017-07-31T11:56:31.415Z,1.77
2017-07-31T12:01:33.218Z,2.30
2017-07-31T12:06:35.078Z,1.87
2017-07-31T12:11:36.855Z,2.20
2017-07-31T12:16:38.672Z,1.77
2017-07-31T12:21:40.875Z,1.50
2017-07-31T12:26:42.617Z,2.37
2017-07-31T12:31:45.940Z,1.70
2017-07-31T12:36:47.934Z,1.57
2017-07-31T12:41:51.464Z,1.67
2017-07-31T12:46:53.419Z,1.60
2017-07-31T12:51:55.818Z,1.80
2017-07-31T12:56:58.730Z,1.50
2017-07-31T13:02:01.555Z,1.77
2017-07-31T13:07:04.294Z,1.43
2017-07-31T13:12:06.078Z,1.57
2017-07-31T13:17:07.823Z,1.83
2017-07-31T13:22:11.777Z,1.80
2017-07-31T13:27:13.635Z,1.30
2017-07-31T13:32:17.187Z,1.63
2017-07-31T13:37:21.271Z,1.80
2017-07-31T13:42:23.908Z,1.67
2017-07-31T13:47:25.734Z,2.13
2017-07-31T13:52:27.487Z,1.43
2017-07-31T13:57:29.329Z,1.40
2017-07-31T14:02:31.127Z,1.30
2017-07-31T14:07:32.934Z,2.13
2017-07-31T14:12:36.261Z,1.40
2017-07-31T14:17:38.516Z,1.60
2017-07-31T14:22:40.427Z,1.10
2017-07-31T14:27:42.332Z,1.20
2017-07-31T14:32:44.400Z,1.30
2017-07-31T14:37:46.939Z,0.80
2017-07-31T14:42:48.678Z,0.90
2017-07-31T14:47:51.727Z,1.40
2017-07-31T14:52:53.778Z,1.13
2017-07-31T14:57:55.598Z,1.00
2017-07-31T15:02:57.330Z,0.93
2017-07-31T15:07:59.997Z,0.87
2017-07-31T15:13:02.322Z,0.90
2017-07-31T15:18:05.745Z,0.97
2017-07-31T15:23:07.562Z,0.90
2017-07-31T15:28:09.463Z,0.70
2017-07-31T15:33:11.355Z,0.90
2017-07-31T15:38:13.915Z,1.27
2017-07-31T15:43:15.747Z,1.03
2017-07-31T15:48:17.646Z,1.10
2017-07-31T15:53:19.486Z,1.67
2017-07-31T15:58:22.248Z,0.97
2017-07-31T16:03:24.106Z,1.03
2017-07-31T16:08:26.294Z,1.10
2017-07-31T16:13:28.716Z,0.80
2017-07-31T16:18:32.135Z,0.90
2017-07-31T16:23:34.191Z,1.50
2017-07-31T16:28:36.726Z,1.83
2017-07-31T16:33:39.551Z,1.20
2017-07-31T16:38:47.535Z,1.20
2017-07-31T16:43:56.354Z,1.00
2017-07-31T16:49:10.077Z,1.10
2017-07-31T16:54:12.039Z,1.13
2017-07-31T16:59:13.881Z,1.30
2017-07-31T17:04:15.647Z,1.27
2017-07-31T17:09:17.450Z,1.30
2017-07-31T17:14:19.217Z,1.63
2017-07-31T17:19:20.994Z,1.47
2017-07-31T17:24:22.811Z,1.33
2017-07-31T17:29:24.568Z,1.40
2017-07-31T17:34:26.327Z,1.10
2017-07-31T17:39:28.125Z,1.50
2017-07-31T17:44:29.918Z,1.13
2017-07-31T17:49:32.431Z,1.30
2017-07-31T17:54:34.268Z,1.27
2017-07-31T17:59:36.081Z,2.03
2017-07-31T18:04:38.214Z,1.43
2017-07-31T18:09:41.399Z,1.07
2017-07-31T18:14:45.692Z,1.47
2017-07-31T18:19:48.839Z,1.20
2017-07-31T18:24:51.847Z,1.40
2017-07-31T18:29:54.466Z,1.10
2017-07-31T18:34:56.565Z,1.20
2017-07-31T18:39:58.977Z,1.50
2017-07-31T18:45:01.538Z,1.80
2017-07-31T18:50:03.426Z,1.43
2017-07-31T18:55:05.193Z,1.30
2017-07-31T19:00:07.148Z,1.40
2017-07-31T19:05:10.559Z,1.60
2017-07-31T19:10:14.649Z,2.13
2017-07-31T19:15:16.570Z,1.50
2017-07-31T19:20:18.411Z,1.33
2017-07-31T19:25:21.061Z,1.57
2017-07-31T19:30:23.107Z,1.80
2017-07-31T19:35:25.647Z,1.80
2017-07-31T19:40:28.178Z,2.10
2017-07-31T19:45:29.954Z,1.80
2017-07-31T19:50:32.462Z,1.73
2017-07-31T19:55:34.779Z,1.60
2017-07-31T20:00:36.737Z,2.10
2017-07-31T20:05:40.126Z,2.50
2017-07-31T20:10:42.768Z,1.87
2017-07-31T20:15:44.630Z,1.73
2017-07-31T20:20:47.150Z,2.03
2017-07-31T20:25:50.368Z,2.33
2017-07-31T20:30:52.367Z,2.27
2017-07-31T20:35:55.473Z,2.30
2017-07-31T20:40:58.031Z,2.83
2017-07-31T20:46:01.215Z,2.43
2017-07-31T20:51:03.829Z,2.60
2017-07-31T20:56:06.512Z,2.23
2017-07-31T21:01:09.636Z,3.10
2017-07-31T21:06:12.448Z,3.17
2017-07-31T21:11:14.775Z,3.53
2017-07-31T21:16:18.160Z,3.40
2017-07-31T21:21:20.671Z,3.70
2017-07-31T21:26:23.152Z,3.30
2017-07-31T21:31:25.886Z,3.73
2017-07-31T21:36:27.949Z,3.10
2017-07-31T21:41:30.871Z,3.13
2017-07-31T21:46:33.372Z,2.97
2017-07-31T21:51:35.186Z,2.50
2017-07-31T21:56:36.985Z,3.37
2017-07-31T22:01:38.738Z,2.27
2017-07-31T22:06:40.661Z,2.70
2017-07-31T22:11:42.378Z,2.93
2017-07-31T22:16:50.052Z,3.10
2017-07-31T22:21:58.005Z,3.13
2017-07-31T22:26:59.742Z,3.13
2017-07-31T22:32:01.491Z,3.17
2017-07-31T22:37:03.223Z,3.70
2017-07-31T22:42:04.963Z,2.97
2017-07-31T22:47:06.731Z,2.73
2017-07-31T22:52:08.468Z,2.83
2017-07-31T22:57:10.471Z,3.07
2017-07-31T23:02:12.544Z,3.00
2017-07-31T23:07:14.669Z,3.30
2017-07-31T23:12:16.733Z,3.40
2017-07-31T23:17:18.740Z,3.20
2017-07-31T23:22:20.499Z,3.20
2017-07-31T23:27:23.054Z,3.03
2017-07-31T23:32:24.820Z,3.63
2017-07-31T23:37:26.518Z,2.93
2017-07-31T23:42:28.275Z,2.43
2017-07-31T23:47:30.026Z,2.60
2017-07-31T23:52:31.759Z,2.60
2017-07-31T23:57:33.537Z,2.67
